sensor_id;sensor_type;location;lat;lon;timestamp;pressure;altitude;pressure_sealevel;temperature;humidity
26192;BME280;13935;55.672;37.764;2023-05-29T00:33:55;100310.75;;;12.24;100.00
26192;BME280;13935;55.672;37.764;2023-05-29T00:36:34;100318.28;;;12.27;100.00
26192;BME280;13935;55.672;37.764;2023-05-29T00:38:58;100319.06;;;12.24;100.00
26192;BME280;13935;55.672;37.764;2023-05-29T00:42:02;100318.25;;;12.23;100.00
26192;BME280;13935;55.672;37.764;2023-05-29T00:43:56;100313.88;;;12.22;100.00
26192;BME280;13935;55.672;37.764;2023-05-29T00:53:21;100311.88;;;12.16;100.00
26192;BME280;13935;55.672;37.764;2023-05-29T00:55:50;100315.84;;;12.18;100.00
26192;BME280;13935;55.672;37.764;2023-05-29T00:58:36;100325.75;;;12.16;100.00
26192;BME280;13935;55.672;37.764;2023-05-29T01:01:45;100320.94;;;12.13;100.00
26192;BME280;13935;55.672;37.764;2023-05-29T01:04:34;100324.50;;;12.10;100.00
26192;BME280;13935;55.672;37.764;2023-05-29T01:08:06;100330.84;;;12.10;100.00
26192;BME280;13935;55.672;37.764;2023-05-29T01:22:25;100332.47;;;12.15;100.00
26192;BME280;13935;55.672;37.764;2023-05-29T01:29:48;100334.13;;;12.23;100.00
26192;BME280;13935;55.672;37.764;2023-05-29T01:31:31;100333.75;;;12.28;100.00
26192;BME280;13935;55.672;37.764;2023-05-29T01:33:41;100338.16;;;12.36;100.00
26192;BME280;13935;55.672;37.764;2023-05-29T01:42:00;100335.81;;;12.45;100.00
26192;BME280;13935;55.672;37.764;2023-05-29T01:43:39;100338.22;;;12.50;100.00
26192;BME280;13935;55.672;37.764;2023-05-29T01:52:05;100343.88;;;12.64;100.00
26192;BME280;13935;55.672;37.764;2023-05-29T01:54:09;100337.16;;;12.72;100.00
26192;BME280;13935;55.672;37.764;2023-05-29T01:55:45;100347.88;;;12.73;100.00
26192;BME280;13935;55.672;37.764;2023-05-29T01:58:19;100345.50;;;12.72;100.00
26192;BME280;13935;55.672;37.764;2023-05-29T02:07:29;100345.63;;;12.89;100.00
26192;BME280;13935;55.672;37.764;2023-05-29T02:09:34;100349.97;;;12.93;100.00
26192;BME280;13935;55.672;37.764;2023-05-29T02:12:37;100342.50;;;13.01;100.00
26192;BME280;13935;55.672;37.764;2023-05-29T02:14:21;100344.06;;;13.05;100.00
26192;BME280;13935;55.672;37.764;2023-05-29T02:19:25;100349.69;;;13.19;100.00
26192;BME280;13935;55.672;37.764;2023-05-29T02:23:08;100350.53;;;13.27;100.00
26192;BME280;13935;55.672;37.764;2023-05-29T02:28:32;100351.34;;;13.55;100.00
26192;BME280;13935;55.672;37.764;2023-05-29T02:33:51;100360.16;;;13.78;100.00
26192;BME280;13935;55.672;37.764;2023-05-29T02:36:49;100350.59;;;14.07;100.00
26192;BME280;13935;55.672;37.764;2023-05-29T02:46:12;100349.72;;;20.33;56.11
26192;BME280;13935;55.672;37.764;2023-05-29T02:48:05;100353.97;;;20.09;55.04
26192;BME280;13935;55.672;37.764;2023-05-29T02:49:08;100358.81;;;20.69;53.49
26192;BME280;13935;55.672;37.764;2023-05-29T02:50:10;100356.78;;;21.14;52.01
26192;BME280;13935;55.672;37.764;2023-05-29T02:51:12;100355.00;;;21.85;50.39
26192;BME280;13935;55.672;37.764;2023-05-29T02:52:14;100353.69;;;22.48;47.93
26192;BME280;13935;55.672;37.764;2023-05-29T02:53:16;100353.56;;;22.86;46.31
26192;BME280;13935;55.672;37.764;2023-05-29T02:54:18;100354.16;;;22.81;46.16
26192;BME280;13935;55.672;37.764;2023-05-29T02:55:21;100354.34;;;22.65;45.75
26192;BME280;13935;55.672;37.764;2023-05-29T02:56:23;100361.91;;;23.02;44.45
26192;BME280;13935;55.672;37.764;2023-05-29T02:57:25;100365.34;;;23.48;43.37
26192;BME280;13935;55.672;37.764;2023-05-29T02:58:27;100364.94;;;23.80;42.52
26192;BME280;13935;55.672;37.764;2023-05-29T02:59:29;100364.00;;;24.22;40.94
26192;BME280;13935;55.672;37.764;2023-05-29T03:00:35;100371.78;;;24.48;40.18
26192;BME280;13935;55.672;37.764;2023-05-29T03:01:36;100365.22;;;24.69;39.53
26192;BME280;13935;55.672;37.764;2023-05-29T03:02:39;100369.94;;;24.72;39.60
26192;BME280;13935;55.672;37.764;2023-05-29T03:03:41;100366.53;;;25.13;38.91
26192;BME280;13935;55.672;37.764;2023-05-29T03:04:47;100369.63;;;24.79;39.22
26192;BME280;13935;55.672;37.764;2023-05-29T03:05:52;100378.00;;;24.74;39.67
26192;BME280;13935;55.672;37.764;2023-05-29T03:06:53;100373.13;;;25.19;38.24
26192;BME280;13935;55.672;37.764;2023-05-29T03:07:56;100369.66;;;25.33;38.20
26192;BME280;13935;55.672;37.764;2023-05-29T03:08:58;100380.25;;;25.92;36.77
26192;BME280;13935;55.672;37.764;2023-05-29T03:10:01;100386.59;;;25.78;37.16
26192;BME280;13935;55.672;37.764;2023-05-29T03:11:08;100383.13;;;25.83;37.03
26192;BME280;13935;55.672;37.764;2023-05-29T03:12:13;100377.19;;;25.45;37.20
26192;BME280;13935;55.672;37.764;2023-05-29T03:13:15;100387.59;;;25.21;37.36
26192;BME280;13935;55.672;37.764;2023-05-29T03:14:25;100379.06;;;25.57;36.60
26192;BME280;13935;55.672;37.764;2023-05-29T03:15:29;100389.75;;;25.80;36.73
26192;BME280;13935;55.672;37.764;2023-05-29T03:16:31;100381.19;;;26.62;35.10
26192;BME280;13935;55.672;37.764;2023-05-29T03:17:33;100383.75;;;27.21;33.69
26192;BME280;13935;55.672;37.764;2023-05-29T03:18:35;100380.31;;;26.94;34.11
26192;BME280;13935;55.672;37.764;2023-05-29T03:19:37;100390.22;;;27.22;34.05
26192;BME280;13935;55.672;37.764;2023-05-29T03:20:41;100395.06;;;27.07;34.04
26192;BME280;13935;55.672;37.764;2023-05-29T03:21:44;100386.47;;;26.92;33.60
26192;BME280;13935;55.672;37.764;2023-05-29T03:22:46;100388.84;;;26.94;33.69
26192;BME280;13935;55.672;37.764;2023-05-29T03:23:48;100392.94;;;27.16;33.16
26192;BME280;13935;55.672;37.764;2023-05-29T03:24:51;100392.19;;;27.44;32.71
26192;BME280;13935;55.672;37.764;2023-05-29T03:25:54;100392.28;;;27.36;32.78
26192;BME280;13935;55.672;37.764;2023-05-29T03:26:56;100397.63;;;27.05;33.74
26192;BME280;13935;55.672;37.764;2023-05-29T03:27:58;100402.88;;;26.97;33.35
26192;BME280;13935;55.672;37.764;2023-05-29T03:29:01;100398.63;;;27.97;32.66
26192;BME280;13935;55.672;37.764;2023-05-29T03:30:06;100399.22;;;26.97;32.72
26192;BME280;13935;55.672;37.764;2023-05-29T03:31:09;100407.16;;;26.93;33.19
26192;BME280;13935;55.672;37.764;2023-05-29T03:32:11;100405.28;;;27.13;31.93
26192;BME280;13935;55.672;37.764;2023-05-29T03:33:13;100398.63;;;27.68;31.90
26192;BME280;13935;55.672;37.764;2023-05-29T03:34:38;100402.84;;;28.02;30.93
26192;BME280;13935;55.672;37.764;2023-05-29T03:35:42;100398.81;;;27.13;31.35
26192;BME280;13935;55.672;37.764;2023-05-29T03:36:44;100399.69;;;27.85;31.75
26192;BME280;13935;55.672;37.764;2023-05-29T03:37:48;100392.41;;;26.24;32.69
26192;BME280;13935;55.672;37.764;2023-05-29T03:38:50;100399.75;;;26.07;33.49
26192;BME280;13935;55.672;37.764;2023-05-29T03:39:53;100396.22;;;26.54;33.19
26192;BME280;13935;55.672;37.764;2023-05-29T03:40:57;100391.59;;;27.41;32.33
26192;BME280;13935;55.672;37.764;2023-05-29T03:41:59;100403.00;;;28.27;31.15
26192;BME280;13935;55.672;37.764;2023-05-29T03:43:02;100398.47;;;28.35;29.67
26192;BME280;13935;55.672;37.764;2023-05-29T03:44:04;100394.59;;;27.89;30.22
26192;BME280;13935;55.672;37.764;2023-05-29T03:45:06;100394.41;;;28.76;29.53
26192;BME280;13935;55.672;37.764;2023-05-29T03:46:12;100401.13;;;29.12;29.24
26192;BME280;13935;55.672;37.764;2023-05-29T03:47:14;100405.38;;;28.00;30.74
26192;BME280;13935;55.672;37.764;2023-05-29T03:48:16;100399.28;;;27.63;31.39
26192;BME280;13935;55.672;37.764;2023-05-29T03:49:20;100403.00;;;28.61;30.31
26192;BME280;13935;55.672;37.764;2023-05-29T03:50:22;100406.59;;;28.96;29.10
26192;BME280;13935;55.672;37.764;2023-05-29T03:51:24;100407.88;;;28.41;29.65
26192;BME280;13935;55.672;37.764;2023-05-29T03:52:29;100409.47;;;28.13;29.89
26192;BME280;13935;55.672;37.764;2023-05-29T03:53:31;100410.25;;;28.77;29.85
26192;BME280;13935;55.672;37.764;2023-05-29T03:54:33;100408.47;;;29.39;28.26
26192;BME280;13935;55.672;37.764;2023-05-29T03:55:38;100414.63;;;29.57;27.46
26192;BME280;13935;55.672;37.764;2023-05-29T03:56:42;100412.78;;;29.54;27.79
26192;BME280;13935;55.672;37.764;2023-05-29T03:57:46;100417.66;;;29.08;28.09
26192;BME280;13935;55.672;37.764;2023-05-29T03:58:50;100421.28;;;29.29;28.17
26192;BME280;13935;55.672;37.764;2023-05-29T03:59:53;100419.38;;;29.00;27.95
26192;BME280;13935;55.672;37.764;2023-05-29T04:00:56;100417.22;;;29.80;27.72
26192;BME280;13935;55.672;37.764;2023-05-29T04:01:59;100422.88;;;30.67;26.06
26192;BME280;13935;55.672;37.764;2023-05-29T04:03:01;100414.78;;;31.02;26.12
26192;BME280;13935;55.672;37.764;2023-05-29T04:04:04;100420.06;;;30.73;25.92
26192;BME280;13935;55.672;37.764;2023-05-29T04:05:07;100421.88;;;30.39;25.75
26192;BME280;13935;55.672;37.764;2023-05-29T04:06:10;100426.22;;;31.02;25.41
26192;BME280;13935;55.672;37.764;2023-05-29T04:07:13;100416.97;;;30.09;26.20
26192;BME280;13935;55.672;37.764;2023-05-29T04:08:15;100426.00;;;29.77;26.88
26192;BME280;13935;55.672;37.764;2023-05-29T04:09:17;100422.28;;;29.91;26.45
26192;BME280;13935;55.672;37.764;2023-05-29T04:10:20;100430.81;;;30.47;25.49
26192;BME280;13935;55.672;37.764;2023-05-29T04:11:23;100418.84;;;30.18;26.17
26192;BME280;13935;55.672;37.764;2023-05-29T04:12:25;100421.81;;;31.01;25.18
26192;BME280;13935;55.672;37.764;2023-05-29T04:13:27;100426.28;;;31.13;24.60
26192;BME280;13935;55.672;37.764;2023-05-29T04:14:29;100429.03;;;31.55;24.82
26192;BME280;13935;55.672;37.764;2023-05-29T04:15:31;100427.59;;;31.17;25.12
26192;BME280;13935;55.672;37.764;2023-05-29T04:16:34;100424.75;;;31.23;24.77
26192;BME280;13935;55.672;37.764;2023-05-29T04:17:36;100426.97;;;30.55;25.27
26192;BME280;13935;55.672;37.764;2023-05-29T04:18:38;100418.97;;;30.29;25.91
26192;BME280;13935;55.672;37.764;2023-05-29T04:19:40;100421.75;;;28.68;27.67
26192;BME280;13935;55.672;37.764;2023-05-29T04:20:42;100427.06;;;30.05;26.08
26192;BME280;13935;55.672;37.764;2023-05-29T04:21:48;100428.84;;;29.52;26.79
26192;BME280;13935;55.672;37.764;2023-05-29T04:22:50;100426.44;;;29.70;26.27
26192;BME280;13935;55.672;37.764;2023-05-29T04:23:54;100424.19;;;30.36;26.10
26192;BME280;13935;55.672;37.764;2023-05-29T04:24:56;100436.25;;;30.87;25.76
26192;BME280;13935;55.672;37.764;2023-05-29T04:25:58;100430.13;;;31.85;24.79
26192;BME280;13935;55.672;37.764;2023-05-29T04:27:02;100422.31;;;31.80;24.33
26192;BME280;13935;55.672;37.764;2023-05-29T04:28:05;100423.88;;;31.70;24.39
26192;BME280;13935;55.672;37.764;2023-05-29T04:29:09;100420.53;;;32.09;24.13
26192;BME280;13935;55.672;37.764;2023-05-29T04:30:16;100426.47;;;31.68;25.06
26192;BME280;13935;55.672;37.764;2023-05-29T04:31:21;100426.97;;;31.61;24.20
26192;BME280;13935;55.672;37.764;2023-05-29T04:32:24;100431.47;;;31.94;24.38
26192;BME280;13935;55.672;37.764;2023-05-29T04:33:26;100428.09;;;32.23;24.42
26192;BME280;13935;55.672;37.764;2023-05-29T04:34:31;100432.63;;;31.39;24.11
26192;BME280;13935;55.672;37.764;2023-05-29T04:35:36;100428.50;;;30.93;25.38
26192;BME280;13935;55.672;37.764;2023-05-29T04:36:41;100427.53;;;31.76;24.42
26192;BME280;13935;55.672;37.764;2023-05-29T04:37:47;100436.41;;;31.99;24.32
26192;BME280;13935;55.672;37.764;2023-05-29T04:38:49;100437.06;;;33.26;23.25
26192;BME280;13935;55.672;37.764;2023-05-29T04:39:53;100439.53;;;32.83;23.56
26192;BME280;13935;55.672;37.764;2023-05-29T04:40:59;100446.53;;;32.93;23.25
26192;BME280;13935;55.672;37.764;2023-05-29T04:42:03;100446.06;;;31.16;24.81
26192;BME280;13935;55.672;37.764;2023-05-29T04:43:05;100443.44;;;31.93;24.29
26192;BME280;13935;55.672;37.764;2023-05-29T04:44:28;100440.34;;;32.46;23.64
26192;BME280;13935;55.672;37.764;2023-05-29T04:45:40;100440.06;;;32.49;23.00
26192;BME280;13935;55.672;37.764;2023-05-29T04:46:43;100441.34;;;31.93;23.51
26192;BME280;13935;55.672;37.764;2023-05-29T04:47:46;100441.63;;;31.95;23.37
26192;BME280;13935;55.672;37.764;2023-05-29T04:48:48;100436.69;;;32.23;23.59
26192;BME280;13935;55.672;37.764;2023-05-29T04:49:54;100445.53;;;32.03;23.19
26192;BME280;13935;55.672;37.764;2023-05-29T04:50:56;100446.63;;;31.26;24.31
26192;BME280;13935;55.672;37.764;2023-05-29T04:51:59;100451.81;;;32.62;23.27
26192;BME280;13935;55.672;37.764;2023-05-29T04:53:02;100442.97;;;32.11;23.01
26192;BME280;13935;55.672;37.764;2023-05-29T04:54:04;100444.50;;;31.15;23.75
26192;BME280;13935;55.672;37.764;2023-05-29T04:55:06;100435.19;;;31.37;23.89
26192;BME280;13935;55.672;37.764;2023-05-29T04:56:08;100450.22;;;32.77;22.49
26192;BME280;13935;55.672;37.764;2023-05-29T04:57:11;100454.13;;;32.80;22.02
26192;BME280;13935;55.672;37.764;2023-05-29T04:58:14;100450.69;;;33.65;21.97
26192;BME280;13935;55.672;37.764;2023-05-29T04:59:16;100452.78;;;33.14;22.23
26192;BME280;13935;55.672;37.764;2023-05-29T05:00:20;100457.97;;;33.15;22.00
26192;BME280;13935;55.672;37.764;2023-05-29T05:01:22;100459.81;;;33.13;21.72
26192;BME280;13935;55.672;37.764;2023-05-29T05:02:25;100454.50;;;33.28;21.34
26192;BME280;13935;55.672;37.764;2023-05-29T05:03:27;100446.81;;;31.91;23.22
26192;BME280;13935;55.672;37.764;2023-05-29T05:04:29;100452.28;;;32.82;22.82
26192;BME280;13935;55.672;37.764;2023-05-29T05:05:34;100447.63;;;32.47;22.16
26192;BME280;13935;55.672;37.764;2023-05-29T05:06:39;100458.78;;;32.94;21.56
26192;BME280;13935;55.672;37.764;2023-05-29T05:07:42;100456.53;;;33.43;21.22
26192;BME280;13935;55.672;37.764;2023-05-29T05:08:52;100450.47;;;32.85;21.64
26192;BME280;13935;55.672;37.764;2023-05-29T05:10:10;100454.97;;;33.42;21.28
26192;BME280;13935;55.672;37.764;2023-05-29T05:11:15;100455.69;;;34.05;21.83
26192;BME280;13935;55.672;37.764;2023-05-29T05:12:19;100450.97;;;33.62;21.63
26192;BME280;13935;55.672;37.764;2023-05-29T05:13:27;100447.91;;;34.29;21.39
26192;BME280;13935;55.672;37.764;2023-05-29T05:14:48;100453.00;;;34.18;20.72
26192;BME280;13935;55.672;37.764;2023-05-29T05:16:11;100456.72;;;34.08;20.41
26192;BME280;13935;55.672;37.764;2023-05-29T05:17:15;100453.53;;;34.16;20.76
26192;BME280;13935;55.672;37.764;2023-05-29T05:18:21;100451.84;;;34.32;20.76
26192;BME280;13935;55.672;37.764;2023-05-29T05:19:33;100458.75;;;35.43;20.24
26192;BME280;13935;55.672;37.764;2023-05-29T05:22:41;100453.09;;;32.72;22.18
26192;BME280;13935;55.672;37.764;2023-05-29T05:23:53;100445.78;;;32.00;22.26
26192;BME280;13935;55.672;37.764;2023-05-29T05:25:01;100445.56;;;33.47;20.86
26192;BME280;13935;55.672;37.764;2023-05-29T05:26:05;100448.09;;;33.00;21.19
26192;BME280;13935;55.672;37.764;2023-05-29T05:27:22;100446.97;;;33.81;21.12
26192;BME280;13935;55.672;37.764;2023-05-29T05:28:28;100449.09;;;33.75;20.86
26192;BME280;13935;55.672;37.764;2023-05-29T05:29:30;100446.88;;;34.62;20.12
26192;BME280;13935;55.672;37.764;2023-05-29T05:30:34;100455.13;;;34.12;20.56
26192;BME280;13935;55.672;37.764;2023-05-29T05:31:38;100451.13;;;34.50;19.54
26192;BME280;13935;55.672;37.764;2023-05-29T05:32:41;100447.94;;;33.43;20.35
26192;BME280;13935;55.672;37.764;2023-05-29T05:33:44;100453.66;;;34.29;19.82
26192;BME280;13935;55.672;37.764;2023-05-29T05:34:55;100444.00;;;32.35;21.87
26192;BME280;13935;55.672;37.764;2023-05-29T05:36:02;100448.63;;;31.09;22.67
26192;BME280;13935;55.672;37.764;2023-05-29T05:37:05;100453.41;;;31.39;23.22
26192;BME280;13935;55.672;37.764;2023-05-29T05:38:08;100452.41;;;31.48;22.21
26192;BME280;13935;55.672;37.764;2023-05-29T05:39:11;100450.94;;;30.63;22.34
26192;BME280;13935;55.672;37.764;2023-05-29T05:40:14;100448.72;;;32.55;21.39
26192;BME280;13935;55.672;37.764;2023-05-29T05:43:44;100447.34;;;33.96;20.40
26192;BME280;13935;55.672;37.764;2023-05-29T05:45:18;100452.59;;;33.52;19.36
26192;BME280;13935;55.672;37.764;2023-05-29T05:46:22;100452.63;;;32.57;19.54
26192;BME280;13935;55.672;37.764;2023-05-29T05:47:28;100451.03;;;32.34;19.84
26192;BME280;13935;55.672;37.764;2023-05-29T05:48:36;100448.44;;;32.42;19.78
26192;BME280;13935;55.672;37.764;2023-05-29T05:49:40;100463.09;;;33.38;20.00
26192;BME280;13935;55.672;37.764;2023-05-29T05:50:51;100458.56;;;32.75;19.49
26192;BME280;13935;55.672;37.764;2023-05-29T05:51:55;100458.50;;;33.14;18.52
26192;BME280;13935;55.672;37.764;2023-05-29T05:52:57;100455.97;;;32.77;19.47
26192;BME280;13935;55.672;37.764;2023-05-29T05:54:00;100458.31;;;32.68;19.01
26192;BME280;13935;55.672;37.764;2023-05-29T05:55:06;100459.28;;;34.16;18.51
26192;BME280;13935;55.672;37.764;2023-05-29T05:56:15;100454.91;;;34.92;17.96
26192;BME280;13935;55.672;37.764;2023-05-29T05:57:19;100461.16;;;34.03;17.96
26192;BME280;13935;55.672;37.764;2023-05-29T05:58:23;100458.09;;;35.13;17.86
26192;BME280;13935;55.672;37.764;2023-05-29T05:59:46;100461.84;;;35.50;17.80
26192;BME280;13935;55.672;37.764;2023-05-29T06:01:04;100459.13;;;32.63;18.97
26192;BME280;13935;55.672;37.764;2023-05-29T06:02:18;100461.69;;;33.61;19.25
26192;BME280;13935;55.672;37.764;2023-05-29T06:03:21;100463.41;;;33.81;17.22
26192;BME280;13935;55.672;37.764;2023-05-29T06:04:51;100453.00;;;35.24;17.19
26192;BME280;13935;55.672;37.764;2023-05-29T06:06:14;100458.19;;;35.68;16.41
26192;BME280;13935;55.672;37.764;2023-05-29T06:07:18;100458.03;;;35.79;16.34
26192;BME280;13935;55.672;37.764;2023-05-29T06:08:25;100461.16;;;34.03;16.69
26192;BME280;13935;55.672;37.764;2023-05-29T06:09:28;100462.72;;;34.39;16.88
26192;BME280;13935;55.672;37.764;2023-05-29T06:10:58;100455.31;;;33.79;16.46
26192;BME280;13935;55.672;37.764;2023-05-29T06:12:23;100458.09;;;32.61;17.79
26192;BME280;13935;55.672;37.764;2023-05-29T06:13:37;100469.34;;;33.94;17.50
26192;BME280;13935;55.672;37.764;2023-05-29T06:14:56;100470.78;;;34.46;17.00
26192;BME280;13935;55.672;37.764;2023-05-29T06:16:08;100464.09;;;34.91;16.57
26192;BME280;13935;55.672;37.764;2023-05-29T06:17:11;100464.75;;;33.18;16.98
26192;BME280;13935;55.672;37.764;2023-05-29T06:18:16;100468.09;;;33.84;15.86
26192;BME280;13935;55.672;37.764;2023-05-29T06:19:34;100460.31;;;34.19;15.84
26192;BME280;13935;55.672;37.764;2023-05-29T06:20:46;100461.16;;;33.68;15.83
26192;BME280;13935;55.672;37.764;2023-05-29T06:21:48;100453.38;;;34.04;16.08
26192;BME280;13935;55.672;37.764;2023-05-29T06:22:51;100462.28;;;34.64;15.96
26192;BME280;13935;55.672;37.764;2023-05-29T06:23:55;100460.00;;;34.52;16.21
26192;BME280;13935;55.672;37.764;2023-05-29T06:24:58;100464.03;;;35.20;16.03
26192;BME280;13935;55.672;37.764;2023-05-29T06:26:07;100478.84;;;34.82;16.21
26192;BME280;13935;55.672;37.764;2023-05-29T06:27:10;100464.28;;;34.40;16.00
26192;BME280;13935;55.672;37.764;2023-05-29T06:28:13;100463.28;;;32.62;17.32
26192;BME280;13935;55.672;37.764;2023-05-29T06:29:17;100481.00;;;33.66;17.16
26192;BME280;13935;55.672;37.764;2023-05-29T06:30:23;100467.19;;;32.70;16.95
26192;BME280;13935;55.672;37.764;2023-05-29T06:31:26;100475.72;;;33.03;16.55
26192;BME280;13935;55.672;37.764;2023-05-29T06:32:35;100465.09;;;32.70;17.67
26192;BME280;13935;55.672;37.764;2023-05-29T06:33:56;100464.31;;;32.21;17.19
26192;BME280;13935;55.672;37.764;2023-05-29T06:35:04;100474.97;;;33.08;17.95
26192;BME280;13935;55.672;37.764;2023-05-29T06:36:20;100475.94;;;33.27;17.25
26192;BME280;13935;55.672;37.764;2023-05-29T06:37:34;100473.19;;;32.50;16.89
26192;BME280;13935;55.672;37.764;2023-05-29T06:38:59;100470.06;;;32.54;16.58
26192;BME280;13935;55.672;37.764;2023-05-29T06:40:46;100478.84;;;33.05;16.91
26192;BME280;13935;55.672;37.764;2023-05-29T06:42:17;100483.28;;;33.17;16.00
26192;BME280;13935;55.672;37.764;2023-05-29T06:45:37;100484.88;;;34.20;15.65
26192;BME280;13935;55.672;37.764;2023-05-29T06:47:41;100491.28;;;33.91;15.40
26192;BME280;13935;55.672;37.764;2023-05-29T06:49:07;100487.00;;;32.13;16.74
26192;BME280;13935;55.672;37.764;2023-05-29T06:50:31;100488.47;;;33.24;16.40
26192;BME280;13935;55.672;37.764;2023-05-29T06:51:41;100483.09;;;32.38;17.51
26192;BME280;13935;55.672;37.764;2023-05-29T06:52:57;100483.56;;;31.93;17.54
26192;BME280;13935;55.672;37.764;2023-05-29T06:54:10;100486.97;;;33.01;16.75
26192;BME280;13935;55.672;37.764;2023-05-29T06:55:16;100488.66;;;33.42;16.97
26192;BME280;13935;55.672;37.764;2023-05-29T06:56:23;100489.94;;;34.38;16.29
26192;BME280;13935;55.672;37.764;2023-05-29T06:57:29;100486.09;;;33.84;15.61
26192;BME280;13935;55.672;37.764;2023-05-29T06:58:32;100488.94;;;33.95;15.44
26192;BME280;13935;55.672;37.764;2023-05-29T06:59:36;100485.53;;;33.91;16.61
26192;BME280;13935;55.672;37.764;2023-05-29T07:02:59;100482.84;;;33.58;16.26
26192;BME280;13935;55.672;37.764;2023-05-29T07:04:03;100492.41;;;33.77;16.56
26192;BME280;13935;55.672;37.764;2023-05-29T07:05:09;100478.63;;;32.15;16.91
26192;BME280;13935;55.672;37.764;2023-05-29T07:06:13;100485.34;;;33.22;17.26
26192;BME280;13935;55.672;37.764;2023-05-29T07:07:17;100476.31;;;32.79;17.36
26192;BME280;13935;55.672;37.764;2023-05-29T07:08:25;100477.63;;;32.18;17.21
26192;BME280;13935;55.672;37.764;2023-05-29T07:09:41;100478.94;;;31.43;17.73
26192;BME280;13935;55.672;37.764;2023-05-29T07:11:26;100483.63;;;32.37;17.43
26192;BME280;13935;55.672;37.764;2023-05-29T07:12:40;100486.94;;;33.12;17.24
26192;BME280;13935;55.672;37.764;2023-05-29T07:13:44;100480.16;;;33.04;17.18
26192;BME280;13935;55.672;37.764;2023-05-29T07:14:49;100486.81;;;33.55;17.74
26192;BME280;13935;55.672;37.764;2023-05-29T07:17:48;100485.72;;;32.63;17.24
26192;BME280;13935;55.672;37.764;2023-05-29T07:19:03;100486.59;;;31.68;17.68
26192;BME280;13935;55.672;37.764;2023-05-29T07:20:24;100476.53;;;31.25;18.59
26192;BME280;13935;55.672;37.764;2023-05-29T07:21:44;100474.50;;;32.27;18.11
26192;BME280;13935;55.672;37.764;2023-05-29T07:23:03;100473.09;;;30.74;19.10
26192;BME280;13935;55.672;37.764;2023-05-29T07:24:08;100476.59;;;30.52;18.74
26192;BME280;13935;55.672;37.764;2023-05-29T07:25:15;100483.72;;;31.57;19.16
26192;BME280;13935;55.672;37.764;2023-05-29T07:26:29;100478.13;;;32.11;19.01
26192;BME280;13935;55.672;37.764;2023-05-29T07:27:48;100478.44;;;31.50;18.97
26192;BME280;13935;55.672;37.764;2023-05-29T07:28:53;100465.88;;;32.16;17.98
26192;BME280;13935;55.672;37.764;2023-05-29T07:29:57;100471.47;;;31.04;18.71
26192;BME280;13935;55.672;37.764;2023-05-29T07:31:27;100474.25;;;30.56;19.08
26192;BME280;13935;55.672;37.764;2023-05-29T07:32:34;100467.78;;;30.56;19.50
26192;BME280;13935;55.672;37.764;2023-05-29T07:33:40;100473.94;;;30.85;19.18
26192;BME280;13935;55.672;37.764;2023-05-29T07:34:50;100472.91;;;31.24;19.53
26192;BME280;13935;55.672;37.764;2023-05-29T07:36:01;100473.31;;;30.70;19.21
26192;BME280;13935;55.672;37.764;2023-05-29T07:37:48;100479.06;;;30.76;19.83
26192;BME280;13935;55.672;37.764;2023-05-29T07:38:55;100469.31;;;30.93;19.46
26192;BME280;13935;55.672;37.764;2023-05-29T07:40:04;100473.34;;;31.76;19.29
26192;BME280;13935;55.672;37.764;2023-05-29T07:41:28;100469.53;;;32.11;19.05
26192;BME280;13935;55.672;37.764;2023-05-29T07:42:51;100464.88;;;31.34;18.51
26192;BME280;13935;55.672;37.764;2023-05-29T07:44:00;100466.03;;;31.64;18.84
26192;BME280;13935;55.672;37.764;2023-05-29T07:47:02;100461.44;;;31.30;17.67
26192;BME280;13935;55.672;37.764;2023-05-29T07:48:22;100460.13;;;31.20;18.88
26192;BME280;13935;55.672;37.764;2023-05-29T07:49:54;100463.06;;;31.42;18.37
26192;BME280;13935;55.672;37.764;2023-05-29T07:51:42;100464.84;;;32.25;18.22
26192;BME280;13935;55.672;37.764;2023-05-29T07:53:20;100470.50;;;31.81;18.29
26192;BME280;13935;55.672;37.764;2023-05-29T07:54:33;100473.38;;;31.81;18.49
26192;BME280;13935;55.672;37.764;2023-05-29T07:55:40;100470.00;;;31.83;18.94
26192;BME280;13935;55.672;37.764;2023-05-29T07:56:48;100472.34;;;32.93;17.74
26192;BME280;13935;55.672;37.764;2023-05-29T07:57:56;100474.47;;;32.05;18.92
26192;BME280;13935;55.672;37.764;2023-05-29T07:59:04;100468.22;;;30.85;19.26
26192;BME280;13935;55.672;37.764;2023-05-29T08:00:10;100458.97;;;30.65;20.02
26192;BME280;13935;55.672;37.764;2023-05-29T08:01:32;100465.63;;;31.34;19.27
26192;BME280;13935;55.672;37.764;2023-05-29T08:02:46;100463.22;;;31.80;19.74
26192;BME280;13935;55.672;37.764;2023-05-29T08:04:24;100460.94;;;32.11;18.50
26192;BME280;13935;55.672;37.764;2023-05-29T08:06:17;100477.53;;;31.86;17.86
26192;BME280;13935;55.672;37.764;2023-05-29T08:08:05;100472.41;;;32.66;17.86
26192;BME280;13935;55.672;37.764;2023-05-29T08:09:47;100473.44;;;32.30;17.62
26192;BME280;13935;55.672;37.764;2023-05-29T08:13:38;100457.03;;;32.20;17.59
26192;BME280;13935;55.672;37.764;2023-05-29T08:15:07;100472.66;;;32.63;17.07
26192;BME280;13935;55.672;37.764;2023-05-29T08:16:29;100461.97;;;32.30;17.17
26192;BME280;13935;55.672;37.764;2023-05-29T08:17:59;100479.13;;;32.03;17.16
26192;BME280;13935;55.672;37.764;2023-05-29T08:19:07;100471.28;;;31.92;16.96
26192;BME280;13935;55.672;37.764;2023-05-29T08:20:19;100471.88;;;32.40;17.60